createdAt,value
2023-02-22T00:02:25.697Z,3.70
2023-02-22T00:04:54.797Z,4.30
2023-02-22T00:07:24.558Z,3.63
2023-02-22T00:09:52.680Z,3.50
2023-02-22T00:12:20.857Z,3.10
2023-02-22T00:14:51.152Z,3.40
2023-02-22T00:17:21.529Z,3.10
2023-02-22T00:19:50.967Z,2.47
2023-02-22T00:22:20.619Z,2.47
2023-02-22T00:24:50.540Z,3.70
2023-02-22T00:27:18.926Z,2.90
2023-02-22T00:29:48.017Z,3.03
2023-02-22T00:32:16.790Z,2.53
2023-02-22T00:34:47.828Z,2.43
2023-02-22T00:37:16.157Z,2.47
2023-02-22T00:39:48.393Z,2.63
2023-02-22T00:42:18.550Z,2.90
2023-02-22T00:44:47.153Z,2.10
2023-02-22T00:47:15.322Z,2.57
2023-02-22T00:49:43.506Z,2.60
2023-02-22T00:52:13.706Z,2.40
2023-02-22T00:54:41.874Z,2.73
2023-02-22T00:57:11.308Z,2.63
2023-02-22T00:59:39.949Z,2.77
2023-02-22T01:02:10.512Z,2.53
2023-02-22T01:04:39.143Z,2.30
2023-02-22T01:07:07.576Z,2.90
2023-02-22T01:09:39.617Z,3.00
2023-02-22T01:12:09.706Z,2.90
2023-02-22T01:14:37.879Z,2.87
2023-02-22T01:17:06.848Z,2.80
2023-02-22T01:19:34.970Z,2.87
2023-02-22T01:22:05.480Z,2.70
2023-02-22T01:24:33.904Z,2.47
2023-02-22T01:27:03.993Z,2.50
2023-02-22T01:29:33.126Z,2.23
2023-02-22T01:32:02.119Z,2.63
2023-02-22T01:34:30.493Z,2.53
2023-02-22T01:36:58.812Z,2.70
2023-02-22T01:39:27.082Z,2.30
2023-02-22T01:41:55.548Z,2.63
2023-02-22T01:44:32.906Z,2.50
2023-02-22T01:47:03.087Z,2.93
2023-02-22T01:49:38.232Z,2.87
2023-02-22T01:52:15.049Z,2.40
2023-02-22T01:54:48.621Z,2.57
2023-02-22T01:57:23.697Z,2.60
2023-02-22T01:59:59.988Z,2.53
2023-02-22T02:02:29.642Z,2.90
2023-02-22T02:04:59.638Z,2.77
2023-02-22T02:07:29.970Z,2.50
2023-02-22T02:10:01.953Z,2.40
2023-02-22T02:12:36.011Z,2.37
2023-02-22T02:15:25.447Z,2.10
2023-02-22T02:18:00.684Z,2.63
2023-02-22T02:20:37.814Z,2.40
2023-02-22T02:23:18.105Z,2.40
2023-02-22T02:26:35.824Z,2.60
2023-02-22T02:29:49.405Z,2.60
2023-02-22T02:32:45.772Z,2.30
2023-02-22T02:35:24.171Z,2.40
2023-02-22T02:38:00.994Z,2.83
2023-02-22T02:40:57.492Z,2.40
2023-02-22T02:43:35.449Z,2.80
2023-02-22T02:46:11.409Z,2.40
2023-02-22T02:48:45.468Z,2.30
2023-02-22T02:51:17.556Z,2.40
2023-02-22T02:53:51.431Z,2.20
2023-02-22T02:56:23.600Z,2.60
2023-02-22T02:58:54.564Z,2.23
2023-02-22T03:01:51.919Z,1.80
2023-02-22T03:04:38.736Z,1.70
2023-02-22T03:07:51.009Z,1.60
2023-02-22T03:10:39.550Z,2.13
2023-02-22T03:13:20.758Z,1.97
2023-02-22T03:16:05.008Z,1.83
2023-02-22T03:18:50.356Z,1.77
2023-02-22T03:21:34.009Z,1.30
2023-02-22T03:24:10.864Z,1.60
2023-02-22T03:26:45.229Z,1.57
2023-02-22T03:29:36.616Z,1.47
2023-02-22T03:32:15.266Z,1.60
2023-02-22T03:34:47.493Z,1.20
2023-02-22T03:37:22.261Z,1.53
2023-02-22T03:39:56.015Z,1.30
2023-02-22T03:42:31.014Z,1.50
2023-02-22T03:45:05.612Z,1.30
2023-02-22T03:47:41.799Z,1.57
2023-02-22T03:50:16.531Z,1.10
2023-02-22T03:52:48.359Z,1.40
2023-02-22T03:55:27.467Z,1.60
2023-02-22T03:58:17.476Z,1.30
2023-02-22T04:00:46.604Z,1.23
2023-02-22T04:03:15.106Z,1.03
2023-02-22T04:05:43.444Z,1.40
2023-02-22T04:08:13.587Z,1.20
2023-02-22T04:10:44.446Z,1.33
2023-02-22T04:13:14.960Z,1.30
2023-02-22T04:15:47.990Z,1.33
2023-02-22T04:18:17.459Z,1.17
2023-02-22T04:20:47.607Z,1.40
2023-02-22T04:23:27.307Z,1.37
2023-02-22T04:25:56.799Z,1.40
2023-02-22T04:28:25.165Z,1.53
2023-02-22T04:34:04.841Z,1.27
2023-02-22T04:36:36.983Z,1.20
2023-02-22T04:39:06.886Z,1.40
2023-02-22T04:41:35.766Z,0.83
2023-02-22T04:44:05.460Z,0.90
2023-02-22T04:46:34.752Z,1.50
2023-02-22T04:49:03.693Z,1.10
2023-02-22T04:51:36.112Z,1.30
2023-02-22T04:54:09.573Z,1.40
2023-02-22T04:56:42.008Z,1.73
2023-02-22T04:59:10.381Z,1.50
2023-02-22T05:01:40.444Z,1.70
2023-02-22T05:04:10.443Z,2.10
2023-02-22T05:06:38.604Z,2.07
2023-02-22T05:09:08.151Z,1.50
2023-02-22T05:11:39.353Z,1.90
2023-02-22T05:14:07.840Z,2.10
2023-02-22T05:16:36.227Z,1.63
2023-02-22T05:19:04.997Z,1.80
2023-02-22T05:21:34.935Z,2.00
2023-02-22T05:24:05.806Z,1.83
2023-02-22T05:26:35.651Z,2.80
2023-02-22T05:29:05.336Z,1.73
2023-02-22T05:31:33.832Z,1.80
2023-02-22T05:34:02.636Z,3.60
2023-02-22T05:36:49.288Z,8.20
2023-02-22T05:39:17.913Z,9.00
2023-02-22T05:41:47.739Z,9.93
2023-02-22T05:44:16.040Z,9.80
2023-02-22T05:46:44.163Z,9.47
2023-02-22T05:49:34.401Z,7.70
2023-02-22T05:52:03.794Z,7.90
2023-02-22T05:54:32.535Z,7.17
2023-02-22T05:57:02.535Z,6.43
2023-02-22T05:59:31.391Z,6.07
2023-02-22T06:01:59.646Z,5.83
2023-02-22T06:04:28.140Z,5.80
2023-02-22T06:06:56.308Z,4.73
2023-02-22T06:09:25.393Z,5.23
2023-02-22T06:11:54.578Z,6.93
2023-02-22T06:14:26.867Z,8.63
2023-02-22T06:16:56.377Z,10.80
2023-02-22T06:19:25.031Z,12.63
2023-02-22T06:22:18.427Z,12.37
2023-02-22T06:24:47.618Z,8.27
2023-02-22T06:27:15.793Z,8.00
2023-02-22T06:29:51.835Z,10.20
2023-02-22T06:32:20.281Z,8.20
2023-02-22T06:34:49.443Z,5.40
2023-02-22T06:37:17.728Z,4.23
2023-02-22T06:39:48.460Z,2.53
2023-02-22T06:42:17.079Z,4.37
2023-02-22T06:44:49.335Z,2.50
2023-02-22T06:47:41.321Z,3.70
2023-02-22T06:50:25.658Z,2.93
2023-02-22T06:52:54.967Z,2.90
2023-02-22T06:55:28.614Z,4.33
2023-02-22T06:57:56.814Z,5.70
2023-02-22T07:00:29.268Z,3.50
2023-02-22T07:02:59.584Z,3.60
2023-02-22T07:05:29.614Z,4.67
2023-02-22T07:11:19.399Z,6.73
2023-02-22T07:13:47.763Z,5.87
2023-02-22T07:16:19.493Z,6.40
2023-02-22T07:18:47.791Z,4.53
2023-02-22T07:21:17.581Z,4.00
2023-02-22T07:23:53.763Z,4.63
2023-02-22T07:26:23.950Z,3.73
2023-02-22T07:28:52.861Z,3.70
2023-02-22T07:31:23.039Z,4.30
2023-02-22T07:33:51.666Z,2.40
2023-02-22T07:36:19.836Z,4.23
2023-02-22T07:38:48.220Z,4.33
2023-02-22T07:41:17.665Z,2.90
2023-02-22T07:43:45.961Z,3.27
2023-02-22T07:46:14.630Z,3.07
2023-02-22T07:48:45.900Z,3.50
2023-02-22T07:51:17.436Z,5.03
2023-02-22T07:53:45.955Z,9.60
2023-02-22T07:56:14.944Z,8.20
2023-02-22T07:58:43.428Z,5.03
2023-02-22T08:01:11.774Z,5.10
2023-02-22T08:03:59.838Z,3.90
2023-02-22T08:06:29.031Z,2.70
2023-02-22T08:08:57.166Z,2.93
2023-02-22T08:11:27.270Z,3.40
2023-02-22T08:13:56.461Z,11.40
2023-02-22T08:16:26.499Z,5.50
2023-02-22T08:19:00.228Z,3.60
2023-02-22T08:21:28.673Z,4.93
2023-02-22T08:23:56.791Z,4.67
2023-02-22T08:26:26.105Z,3.37
2023-02-22T08:28:54.481Z,3.50
2023-02-22T08:31:22.921Z,3.63
2023-02-22T08:33:51.262Z,4.47
2023-02-22T08:36:21.520Z,4.20
2023-02-22T08:38:50.205Z,4.30
2023-02-22T08:41:19.710Z,4.10
2023-02-22T08:49:43.149Z,4.10
2023-02-22T08:52:14.214Z,3.40
2023-02-22T08:54:42.352Z,3.20
2023-02-22T08:57:10.874Z,3.90
2023-02-22T08:59:40.350Z,3.13
2023-02-22T09:05:10.085Z,3.30
2023-02-22T09:07:43.446Z,2.93
2023-02-22T09:10:17.563Z,3.30
2023-02-22T09:12:45.801Z,2.80
2023-02-22T09:15:19.043Z,6.30
2023-02-22T09:17:47.415Z,3.00
2023-02-22T09:20:36.352Z,2.80
2023-02-22T09:23:12.554Z,3.07
2023-02-22T09:25:41.621Z,2.73
2023-02-22T09:28:32.886Z,2.50
2023-02-22T09:31:01.468Z,3.47
2023-02-22T09:33:29.715Z,4.70
2023-02-22T09:36:00.754Z,3.67
2023-02-22T09:38:33.359Z,3.50
2023-02-22T09:41:15.337Z,3.97
2023-02-22T09:43:53.934Z,3.10
2023-02-22T09:46:46.099Z,3.57
2023-02-22T09:49:26.735Z,3.13
2023-02-22T09:52:05.193Z,2.93
2023-02-22T09:54:43.866Z,3.20
2023-02-22T09:57:19.788Z,3.40
2023-02-22T10:00:20.937Z,3.57
2023-02-22T10:03:25.449Z,3.10
2023-02-22T10:06:04.371Z,3.20
2023-02-22T10:08:36.015Z,3.23
2023-02-22T10:11:45.517Z,3.50
2023-02-22T10:14:44.155Z,3.00
2023-02-22T10:17:30.200Z,3.30
2023-02-22T10:20:21.306Z,3.20
2023-02-22T10:23:12.408Z,3.27
2023-02-22T10:25:43.545Z,2.93
2023-02-22T10:28:22.483Z,3.33
2023-02-22T10:30:56.691Z,3.07
2023-02-22T10:33:31.539Z,2.03
2023-02-22T10:36:04.054Z,3.00
2023-02-22T10:38:35.847Z,2.90
2023-02-22T10:41:21.879Z,2.87
2023-02-22T10:43:52.042Z,3.37
2023-02-22T10:46:25.028Z,3.20
2023-02-22T10:49:00.526Z,3.33
2023-02-22T10:51:28.734Z,3.63
2023-02-22T10:54:20.344Z,3.70
2023-02-22T10:56:52.278Z,3.73
2023-02-22T10:59:35.323Z,3.50
2023-02-22T11:02:19.802Z,3.50
2023-02-22T11:04:50.915Z,3.40
2023-02-22T11:07:27.186Z,4.00
2023-02-22T11:09:58.186Z,3.93
2023-02-22T11:12:33.160Z,4.03
2023-02-22T11:15:29.536Z,4.20
2023-02-22T11:18:01.846Z,3.70
2023-02-22T11:20:38.440Z,4.23
2023-02-22T11:23:09.354Z,4.20
2023-02-22T11:25:42.305Z,4.17
2023-02-22T11:28:19.195Z,3.70
2023-02-22T11:30:54.700Z,4.00
2023-02-22T11:33:29.676Z,4.55
2023-02-22T11:39:00.112Z,4.40
2023-02-22T11:41:31.485Z,4.10
